Time;durP1;ratioP1;P1;durP2;ratioP2;P2;SDS_P1;SDS_P2;PMS_P1;PMS_P2;Temp;Humidity;BMP_temperature;BMP_pressure;BME280_temperature;BME280_humidity;BME280_pressure;Samples;Min_cycle;Max_cycle;Signal;HPM_P1;HPM_P2
2021/12/25 00:01:52;;;;;;;25.30;22.53;;;6.60;99.90;;;;;;5050513;28;20464;-72
2021/12/25 00:04:19;;;;;;;25.93;23.37;;;6.60;99.90;;;;;;5060492;28;20463;-70
2021/12/25 00:06:46;;;;;;;26.00;23.43;;;6.70;99.90;;;;;;5051907;28;20472;-71
2021/12/25 00:09:13;;;;;;;25.30;22.90;;;6.70;99.90;;;;;;5050042;28;20486;-70
2021/12/25 00:11:40;;;;;;;25.10;22.53;;;6.70;99.90;;;;;;5053237;28;20470;-74
2021/12/25 00:14:12;;;;;;;26.80;24.20;;;6.60;99.90;;;;;;5045848;28;20467;-69
2021/12/25 00:16:39;;;;;;;26.03;23.30;;;6.60;99.90;;;;;;5055555;28;20468;-70
2021/12/25 00:19:07;;;;;;;25.83;22.67;;;6.60;99.90;;;;;;5054705;28;20505;-70
2021/12/25 00:21:34;;;;;;;27.57;24.57;;;6.50;99.90;;;;;;5053816;28;21008;-69
2021/12/25 00:24:01;;;;;;;27.13;24.33;;;6.50;99.90;;;;;;5051384;28;20525;-73
2021/12/25 00:26:53;;;;;;;25.80;23.30;;;6.50;99.90;;;;;;5056539;28;20506;-71
2021/12/25 00:32:31;;;;;;;25.47;22.87;;;6.60;99.90;;;;;;5053866;28;20545;-72
2021/12/25 00:34:58;;;;;;;24.70;22.03;;;6.50;99.90;;;;;;5052560;28;20828;-71
2021/12/25 00:37:26;;;;;;;27.10;24.23;;;6.30;99.90;;;;;;5056691;28;21005;-73
2021/12/25 00:39:54;;;;;;;27.47;24.47;;;6.30;99.90;;;;;;5059349;28;20549;-68
2021/12/25 00:42:22;;;;;;;27.40;23.63;;;6.30;99.90;;;;;;5052948;28;20467;-72
2021/12/25 00:44:50;;;;;;;25.67;22.93;;;6.40;99.90;;;;;;5051132;28;20460;-70
2021/12/25 00:47:17;;;;;;;25.23;22.57;;;6.40;99.90;;;;;;5054091;28;20460;-71
2021/12/25 00:49:44;;;;;;;26.60;23.83;;;6.40;99.90;;;;;;5053329;28;20525;-72
2021/12/25 00:52:11;;;;;;;30.37;25.17;;;6.50;99.90;;;;;;5056052;28;20466;-73
2021/12/25 00:54:37;;;;;;;27.37;24.43;;;6.60;99.90;;;;;;5056508;28;20821;-71
2021/12/25 00:57:04;;;;;;;26.70;24.00;;;6.50;99.90;;;;;;5057052;28;20498;-72
2021/12/25 00:59:32;;;;;;;26.30;23.70;;;6.60;99.90;;;;;;5054382;28;20473;-68
2021/12/25 01:02:00;;;;;;;24.00;21.60;;;6.60;99.90;;;;;;5052243;28;20463;-73
2021/12/25 01:04:27;;;;;;;26.27;23.60;;;6.50;99.90;;;;;;5047064;28;20466;-73
2021/12/25 01:06:54;;;;;;;28.10;25.10;;;6.50;99.90;;;;;;5060178;28;20464;-70
2021/12/25 01:09:21;;;;;;;27.13;23.57;;;6.50;99.90;;;;;;5051743;28;20468;-72
2021/12/25 01:11:50;;;;;;;27.83;23.10;;;6.40;99.90;;;;;;5056979;28;21022;-72
2021/12/25 01:14:26;;;;;;;26.03;23.53;;;6.30;99.90;;;;;;5055400;28;20459;-71
2021/12/25 01:19:54;;;;;;;23.27;21.03;;;6.20;99.90;;;;;;5045916;28;20467;-70
2021/12/25 01:25:49;;;;;;;22.83;20.67;;;6.10;99.90;;;;;;5031834;28;20821;-70
2021/12/25 01:31:01;;;;;;;23.70;21.57;;;6.10;99.90;;;;;;5030554;28;20497;-72
2021/12/25 01:36:40;;;;;;;25.60;23.17;;;6.10;99.90;;;;;;5030374;28;20840;-71
2021/12/25 01:39:13;;;;;;;28.27;25.60;;;6.10;99.90;;;;;;5056017;28;20547;-72
2021/12/25 01:49:57;;;;;;;32.50;29.60;;;6.00;99.90;;;;;;5058107;28;20499;-70
2021/12/25 01:52:26;;;;;;;32.10;29.37;;;6.00;99.90;;;;;;5049938;28;21050;-70
2021/12/25 01:54:54;;;;;;;32.07;29.20;;;5.90;99.90;;;;;;5059767;28;20949;-71
2021/12/25 01:57:21;;;;;;;32.97;30.10;;;5.80;99.90;;;;;;5062475;28;20996;-68
2021/12/25 01:59:48;;;;;;;33.33;30.43;;;5.70;99.90;;;;;;5051064;28;20472;-69
2021/12/25 02:02:16;;;;;;;32.43;29.47;;;5.70;99.90;;;;;;5061434;28;20486;-68
2021/12/25 02:04:43;;;;;;;31.90;29.20;;;5.60;99.90;;;;;;5055481;28;20601;-72
2021/12/25 02:07:10;;;;;;;30.83;28.23;;;5.60;99.90;;;;;;5056636;28;20448;-72
2021/12/25 02:09:38;;;;;;;29.90;27.27;;;5.50;99.90;;;;;;5059481;28;20521;-72
2021/12/25 02:12:06;;;;;;;33.63;30.53;;;5.40;99.90;;;;;;5048586;28;20678;-70
2021/12/25 02:14:35;;;;;;;29.53;27.30;;;5.50;99.90;;;;;;5054480;28;20499;-70
2021/12/25 02:17:14;;;;;;;31.00;28.40;;;5.40;99.90;;;;;;5054919;28;20464;-69
2021/12/25 02:19:48;;;;;;;31.73;29.13;;;5.30;99.90;;;;;;5059162;28;20542;-69
2021/12/25 02:22:18;;;;;;;31.43;28.73;;;5.30;99.90;;;;;;5056936;28;21001;-67
2021/12/25 02:24:46;;;;;;;31.13;28.47;;;5.20;99.90;;;;;;5058829;28;20471;-70
2021/12/25 02:27:13;;;;;;;33.30;30.10;;;5.10;99.90;;;;;;5063307;28;20464;-71
2021/12/25 02:29:41;;;;;;;31.80;29.20;;;5.20;99.90;;;;;;5054364;28;21020;-68
2021/12/25 02:32:09;;;;;;;31.67;28.70;;;5.20;99.90;;;;;;5054093;28;20476;-71
2021/12/25 02:34:36;;;;;;;31.60;28.70;;;5.20;99.90;;;;;;5052469;28;20474;-71
2021/12/25 02:37:05;;;;;;;32.67;29.70;;;5.10;99.90;;;;;;5052356;28;20463;-69
2021/12/25 02:39:32;;;;;;;34.10;30.90;;;5.10;99.90;;;;;;5061231;28;20543;-68
2021/12/25 02:41:59;;;;;;;34.10;31.20;;;5.10;99.90;;;;;;5048734;28;20464;-69
2021/12/25 02:44:26;;;;;;;34.83;31.83;;;5.10;99.90;;;;;;5056315;28;20654;-69
2021/12/25 02:46:55;;;;;;;33.03;30.27;;;5.10;99.90;;;;;;5056195;28;20460;-70
2021/12/25 02:49:24;;;;;;;33.20;30.40;;;5.10;99.90;;;;;;5056586;28;20483;-70
2021/12/25 02:51:52;;;;;;;34.97;32.00;;;5.00;99.90;;;;;;5052333;28;20607;-68
2021/12/25 02:54:21;;;;;;;32.60;29.90;;;5.00;99.90;;;;;;5058890;28;21180;-70
2021/12/25 02:56:49;;;;;;;35.17;31.87;;;5.00;99.90;;;;;;5053410;28;20467;-68
2021/12/25 02:59:17;;;;;;;37.30;33.73;;;4.90;99.90;;;;;;5054892;28;20468;-72
2021/12/25 03:01:44;;;;;;;36.93;33.27;;;4.90;99.90;;;;;;5055654;28;20467;-71
2021/12/25 03:04:11;;;;;;;41.30;37.60;;;5.00;99.90;;;;;;5050069;28;20487;-68
2021/12/25 03:06:39;;;;;;;42.03;38.33;;;4.90;99.90;;;;;;5060006;28;20454;-71
2021/12/25 03:09:07;;;;;;;41.73;37.97;;;4.80;99.90;;;;;;5058335;28;20565;-71
2021/12/25 03:11:36;;;;;;;40.63;37.23;;;4.80;99.90;;;;;;5054596;28;20490;-69
2021/12/25 03:14:13;;;;;;;41.60;38.10;;;4.70;99.90;;;;;;5056010;28;20474;-72
2021/12/25 03:16:41;;;;;;;38.97;35.57;;;4.70;99.90;;;;;;5057632;28;20502;-68
2021/12/25 03:19:16;;;;;;;41.20;37.30;;;4.60;99.90;;;;;;5055240;28;20479;-70
2021/12/25 03:21:44;;;;;;;39.00;35.47;;;4.60;99.90;;;;;;5055686;28;20458;-70
2021/12/25 03:24:10;;;;;;;42.60;38.67;;;4.60;99.90;;;;;;5055502;28;20464;-72
2021/12/25 03:26:39;;;;;;;40.10;36.60;;;4.60;99.90;;;;;;5058097;28;20474;-72
2021/12/25 03:29:08;;;;;;;37.07;33.73;;;4.60;99.90;;;;;;5058188;28;20466;-70
2021/12/25 03:31:34;;;;;;;41.00;37.07;;;4.50;99.90;;;;;;5061530;28;20492;-71
2021/12/25 03:34:01;;;;;;;41.67;37.47;;;4.50;99.90;;;;;;5048686;28;20474;-70
2021/12/25 03:36:28;;;;;;;39.57;35.77;;;4.50;99.90;;;;;;5055179;28;20463;-72
2021/12/25 03:38:55;;;;;;;40.77;36.90;;;4.50;99.90;;;;;;5054976;28;20460;-69
2021/12/25 03:41:22;;;;;;;42.90;38.63;;;4.50;99.90;;;;;;5053940;28;20900;-70
2021/12/25 03:43:51;;;;;;;42.30;38.00;;;4.60;99.90;;;;;;5052532;28;20494;-70
2021/12/25 03:46:19;;;;;;;43.50;39.40;;;4.60;99.90;;;;;;5052057;28;20464;-70
2021/12/25 03:59:52;;;;;;;39.53;35.50;;;4.40;99.90;;;;;;5055537;28;20553;-70
2021/12/25 04:02:24;;;;;;;37.97;34.47;;;4.30;99.90;;;;;;5051702;28;20466;-70
2021/12/25 04:04:52;;;;;;;38.13;34.53;;;4.30;99.90;;;;;;5053315;28;20536;-70
2021/12/25 04:07:41;;;;;;;40.17;36.33;;;4.30;99.90;;;;;;5059058;28;20456;-72
2021/12/25 04:10:09;;;;;;;37.10;33.57;;;4.30;99.90;;;;;;5052385;28;20463;-72
2021/12/25 04:12:36;;;;;;;38.50;35.00;;;4.30;99.90;;;;;;5057077;28;20460;-69
2021/12/25 04:15:06;;;;;;;40.27;36.50;;;4.30;99.90;;;;;;5055755;28;20912;-71
2021/12/25 04:17:32;;;;;;;38.37;34.77;;;4.20;99.90;;;;;;5052417;28;20456;-71
2021/12/25 04:20:02;;;;;;;41.27;37.17;;;4.10;99.90;;;;;;5053959;28;20487;-69
2021/12/25 04:22:36;;;;;;;40.43;36.60;;;4.10;99.90;;;;;;5052026;28;20493;-69
2021/12/25 04:25:03;;;;;;;39.97;36.17;;;4.20;99.90;;;;;;5056993;28;20840;-69
2021/12/25 04:27:30;;;;;;;38.73;34.67;;;4.00;99.90;;;;;;5053318;28;20954;-70
2021/12/25 04:30:03;;;;;;;37.10;33.70;;;3.90;99.90;;;;;;5055985;28;20521;-70
2021/12/25 04:33:23;;;;;;;36.30;33.10;;;3.80;99.90;;;;;;5052136;28;20582;-71
2021/12/25 05:03:11;;;;;;;40.40;36.53;;;3.60;99.90;;;;;;5056418;28;20465;-71
2021/12/25 05:05:40;;;;;;;38.17;34.47;;;3.60;99.90;;;;;;5053387;28;20537;-71
2021/12/25 05:08:08;;;;;;;35.60;32.60;;;3.50;99.90;;;;;;5055286;28;20459;-69
2021/12/25 05:10:35;;;;;;;39.53;35.63;;;3.50;99.90;;;;;;5054240;28;20570;-70
2021/12/25 05:13:02;;;;;;;40.13;36.13;;;3.50;99.90;;;;;;5057205;28;20491;-70
2021/12/25 05:15:28;;;;;;;38.80;35.10;;;3.50;99.90;;;;;;5057250;28;20458;-70
2021/12/25 05:17:56;;;;;;;40.00;36.20;;;3.60;99.90;;;;;;5064376;28;20499;-71
2021/12/25 05:20:24;;;;;;;39.40;35.40;;;3.60;99.90;;;;;;5062738;28;20988;-70
2021/12/25 05:22:52;;;;;;;39.17;35.53;;;3.60;99.90;;;;;;5050210;28;20483;-72
2021/12/25 05:25:19;;;;;;;38.37;34.53;;;3.70;99.90;;;;;;5055904;28;20470;-72
2021/12/25 05:27:46;;;;;;;37.83;34.30;;;3.40;99.90;;;;;;5057773;28;20544;-70
2021/12/25 05:30:14;;;;;;;34.80;31.60;;;3.30;99.90;;;;;;5054388;28;20505;-70
2021/12/25 05:32:41;;;;;;;33.87;30.90;;;3.30;99.90;;;;;;5058124;28;20586;-72
2021/12/25 05:35:08;;;;;;;37.07;33.57;;;3.20;99.90;;;;;;5050213;28;20468;-70
2021/12/25 05:37:35;;;;;;;36.57;32.73;;;3.20;99.90;;;;;;5060079;28;20473;-71
2021/12/25 05:40:05;;;;;;;37.30;33.47;;;3.20;99.90;;;;;;5055825;28;20463;-70
2021/12/25 05:42:32;;;;;;;38.87;34.87;;;3.10;99.90;;;;;;5056959;28;20459;-69
2021/12/25 05:44:59;;;;;;;35.43;32.30;;;3.10;99.90;;;;;;5052199;28;20452;-71
2021/12/25 05:47:26;;;;;;;38.70;34.97;;;3.00;99.90;;;;;;5058069;28;20463;-71
2021/12/25 05:49:52;;;;;;;35.03;31.73;;;3.00;99.90;;;;;;5055904;28;21356;-71
2021/12/25 05:52:20;;;;;;;35.93;31.57;;;3.00;99.90;;;;;;5057275;28;20487;-70
2021/12/25 05:54:46;;;;;;;35.50;32.10;;;2.90;99.90;;;;;;5060587;28;20533;-72
2021/12/25 05:57:15;;;;;;;37.17;33.47;;;2.80;99.90;;;;;;5052021;28;20465;-72
2021/12/25 05:59:42;;;;;;;35.20;31.87;;;2.90;99.90;;;;;;5061548;28;20467;-70
2021/12/25 06:02:08;;;;;;;38.27;34.40;;;2.90;99.90;;;;;;5056013;28;20463;-71
2021/12/25 06:04:35;;;;;;;36.73;32.97;;;2.90;99.90;;;;;;5059671;28;20467;-70
2021/12/25 06:07:02;;;;;;;45.27;35.83;;;2.90;99.90;;;;;;5055229;28;20467;-70
2021/12/25 06:09:29;;;;;;;35.00;31.57;;;3.00;99.90;;;;;;5053936;28;20467;-70
2021/12/25 06:11:56;;;;;;;36.73;33.13;;;2.90;99.90;;;;;;5055001;28;20490;-71
2021/12/25 06:14:24;;;;;;;37.87;33.97;;;2.80;99.90;;;;;;5052761;28;20455;-69
2021/12/25 06:16:51;;;;;;;37.60;34.00;;;2.80;99.90;;;;;;5058192;28;20478;-69
2021/12/25 06:19:18;;;;;;;41.23;37.13;;;2.80;99.90;;;;;;5059967;28;20463;-71
2021/12/25 06:21:46;;;;;;;37.43;33.83;;;2.80;99.90;;;;;;5057239;28;20959;-69
2021/12/25 06:24:15;;;;;;;38.70;34.97;;;2.70;99.90;;;;;;5057662;28;20467;-70
2021/12/25 06:26:42;;;;;;;36.60;33.20;;;2.80;99.90;;;;;;5062007;28;20558;-70
2021/12/25 06:29:10;;;;;;;39.27;35.40;;;2.70;99.90;;;;;;5056048;28;20469;-70
2021/12/25 06:31:39;;;;;;;39.60;35.80;;;2.60;99.90;;;;;;5061481;28;20475;-71
2021/12/25 06:34:07;;;;;;;39.20;35.30;;;2.70;99.90;;;;;;5057634;28;20516;-70
2021/12/25 06:36:34;;;;;;;38.60;34.80;;;2.70;99.90;;;;;;5058159;28;20526;-71
2021/12/25 06:39:02;;;;;;;33.90;30.63;;;2.60;99.90;;;;;;5053622;28;20550;-70
2021/12/25 06:41:29;;;;;;;36.80;33.10;;;2.60;99.90;;;;;;5062520;28;20459;-71
2021/12/25 06:43:57;;;;;;;36.73;32.83;;;2.60;99.90;;;;;;5056241;28;20486;-71
2021/12/25 06:46:24;;;;;;;33.60;30.37;;;2.60;99.90;;;;;;5058342;28;20474;-71
2021/12/25 06:48:53;;;;;;;37.27;33.43;;;2.50;99.90;;;;;;5057441;28;20591;-70
2021/12/25 06:51:20;;;;;;;38.40;34.50;;;2.60;99.90;;;;;;5055769;28;21004;-69
2021/12/25 06:53:46;;;;;;;33.70;30.50;;;2.60;99.90;;;;;;5050286;28;20512;-71
2021/12/25 06:56:13;;;;;;;36.30;32.63;;;2.50;99.90;;;;;;5053911;28;20473;-71
2021/12/25 06:58:40;;;;;;;32.13;29.13;;;2.50;99.90;;;;;;5055299;28;20467;-69
2021/12/25 07:01:07;;;;;;;34.63;31.33;;;2.40;99.90;;;;;;5057129;28;20474;-70
2021/12/25 07:03:34;;;;;;;32.90;29.93;;;2.30;99.90;;;;;;5057018;28;20531;-70
2021/12/25 07:06:03;;;;;;;34.50;31.00;;;2.30;99.90;;;;;;5052267;28;20481;-71
2021/12/25 07:08:30;;;;;;;37.90;34.00;;;2.30;99.90;;;;;;5055762;28;20471;-70
2021/12/25 07:10:57;;;;;;;35.10;31.30;;;2.40;99.90;;;;;;5061718;28;20819;-69
2021/12/25 07:13:24;;;;;;;35.40;31.83;;;2.40;99.90;;;;;;5051696;28;20463;-71
2021/12/25 07:15:51;;;;;;;34.43;31.10;;;2.40;99.90;;;;;;5053661;28;20570;-71
2021/12/25 07:18:18;;;;;;;36.07;32.67;;;2.30;99.90;;;;;;5056708;28;20462;-71
2021/12/25 07:20:48;;;;;;;32.60;29.80;;;2.30;99.90;;;;;;5055504;28;20471;-69
2021/12/25 07:23:17;;;;;;;35.47;32.03;;;2.40;99.90;;;;;;5057335;28;20490;-71
2021/12/25 07:25:44;;;;;;;36.07;32.47;;;2.10;99.90;;;;;;5055780;28;20466;-70
2021/12/25 07:28:12;;;;;;;35.67;32.27;;;2.20;99.90;;;;;;5056407;28;20463;-70
2021/12/25 07:30:38;;;;;;;34.13;30.93;;;2.20;99.90;;;;;;5058858;28;20462;-70
2021/12/25 07:33:06;;;;;;;35.30;32.03;;;2.20;99.90;;;;;;5059659;28;20490;-71
2021/12/25 07:35:33;;;;;;;30.93;28.20;;;2.20;99.90;;;;;;5052392;28;20821;-70
2021/12/25 07:38:00;;;;;;;34.20;31.00;;;2.10;99.90;;;;;;5058395;28;20470;-70
2021/12/25 07:40:28;;;;;;;36.07;32.47;;;2.10;99.90;;;;;;5055683;28;20962;-70
2021/12/25 07:42:55;;;;;;;34.77;31.67;;;2.00;99.90;;;;;;5053618;28;20455;-70
2021/12/25 07:45:22;;;;;;;36.30;32.70;;;2.00;99.90;;;;;;5054416;28;20462;-70
2021/12/25 07:47:57;;;;;;;35.33;32.03;;;1.90;99.90;;;;;;5047349;28;20490;-71
2021/12/25 07:50:24;;;;;;;36.00;32.50;;;1.80;99.90;;;;;;5053054;28;20865;-70
2021/12/25 07:52:51;;;;;;;35.13;31.77;;;1.90;99.90;;;;;;5060662;28;20855;-71
2021/12/25 07:55:18;;;;;;;38.20;34.37;;;1.80;99.90;;;;;;5055311;28;20469;-69
2021/12/25 07:57:46;;;;;;;37.50;33.70;;;1.90;99.90;;;;;;5056841;28;20473;-70
2021/12/25 08:00:14;;;;;;;34.03;30.93;;;1.80;99.90;;;;;;5059914;28;20473;-71
2021/12/25 08:02:42;;;;;;;35.23;31.97;;;1.80;99.90;;;;;;5060419;28;20463;-70
2021/12/25 08:05:10;;;;;;;33.90;30.80;;;1.90;99.90;;;;;;5049938;28;21043;-71
2021/12/25 08:07:37;;;;;;;35.23;31.67;;;1.70;99.90;;;;;;5046739;28;20456;-71
2021/12/25 08:10:13;;;;;;;36.10;32.50;;;1.70;99.90;;;;;;5058022;28;20471;-69
2021/12/25 08:12:42;;;;;;;29.87;27.37;;;1.70;99.90;;;;;;5055684;28;20796;-69
2021/12/25 08:15:12;;;;;;;35.07;31.87;;;1.60;99.90;;;;;;5053874;28;20459;-71
2021/12/25 08:17:39;;;;;;;32.77;29.87;;;1.70;99.90;;;;;;5053365;28;20458;-71
2021/12/25 08:20:07;;;;;;;34.87;31.57;;;1.60;99.90;;;;;;5054031;28;20484;-71
2021/12/25 08:22:35;;;;;;;28.33;26.30;;;1.60;99.90;;;;;;5047138;28;20488;-70
2021/12/25 08:25:02;;;;;;;35.13;31.83;;;1.60;99.90;;;;;;5052451;28;20463;-69
2021/12/25 08:27:29;;;;;;;35.30;32.33;;;1.60;99.90;;;;;;5053813;28;20940;-71
2021/12/25 08:29:56;;;;;;;34.57;31.33;;;1.60;99.90;;;;;;5055876;28;20459;-70
2021/12/25 08:32:25;;;;;;;35.47;32.10;;;1.60;99.90;;;;;;5055904;28;20486;-69
2021/12/25 08:34:52;;;;;;;35.47;32.10;;;1.70;99.90;;;;;;5051703;28;20466;-71
2021/12/25 08:37:22;;;;;;;34.70;31.53;;;1.70;99.90;;;;;;5051557;28;20839;-70
2021/12/25 08:39:49;;;;;;;35.97;32.53;;;1.70;99.90;;;;;;5057738;28;20634;-69
2021/12/25 08:42:17;;;;;;;37.10;33.40;;;1.70;99.90;;;;;;5050331;28;20553;-69
2021/12/25 08:45:04;;;;;;;35.20;31.80;;;1.60;99.90;;;;;;5051219;28;20687;-70
2021/12/25 08:47:35;;;;;;;35.10;31.80;;;1.60;99.90;;;;;;5051186;28;20463;-70
2021/12/25 08:50:06;;;;;;;37.97;34.43;;;1.70;99.90;;;;;;5044727;28;20543;-70
2021/12/25 08:52:33;;;;;;;34.70;31.33;;;1.70;99.90;;;;;;5055387;28;20490;-71
2021/12/25 08:55:00;;;;;;;38.67;34.70;;;1.60;99.90;;;;;;5053727;28;20471;-71
2021/12/25 08:57:28;;;;;;;36.93;33.27;;;1.70;99.90;;;;;;5052785;28;20496;-70
2021/12/25 08:59:57;;;;;;;37.63;33.83;;;1.60;99.90;;;;;;5056938;28;20465;-70
2021/12/25 09:02:25;;;;;;;33.57;30.47;;;1.70;99.90;;;;;;5056724;28;20466;-71
2021/12/25 09:04:53;;;;;;;36.63;33.07;;;1.60;99.90;;;;;;5048402;28;20462;-70
2021/12/25 09:07:21;;;;;;;36.20;32.67;;;1.60;99.90;;;;;;5055240;28;20473;-69
2021/12/25 09:09:48;;;;;;;36.57;32.97;;;1.60;99.90;;;;;;5056698;28;20468;-70
2021/12/25 09:12:16;;;;;;;34.53;31.10;;;1.70;99.90;;;;;;5046867;28;20626;-69
2021/12/25 09:14:45;;;;;;;37.00;33.50;;;1.80;99.90;;;;;;5053723;28;20460;-71
2021/12/25 09:17:13;;;;;;;38.47;34.67;;;1.80;99.90;;;;;;5054433;28;20467;-70
2021/12/25 09:19:41;;;;;;;37.07;33.60;;;1.80;99.90;;;;;;5053081;28;21385;-71
2021/12/25 09:22:11;;;;;;;38.23;34.43;;;1.70;99.90;;;;;;5054196;28;20494;-69
2021/12/25 09:24:38;;;;;;;37.70;34.20;;;1.80;99.90;;;;;;5050521;28;20969;-70
2021/12/25 09:27:06;;;;;;;37.37;34.07;;;1.70;99.90;;;;;;5059583;28;20473;-70
2021/12/25 09:29:33;;;;;;;39.03;35.17;;;1.90;99.90;;;;;;5049334;28;20855;-69
2021/12/25 09:32:00;;;;;;;35.50;32.30;;;1.90;99.90;;;;;;5059191;28;20992;-70
2021/12/25 09:34:27;;;;;;;36.87;33.57;;;1.80;99.90;;;;;;5053054;28;20466;-70
2021/12/25 09:36:54;;;;;;;38.60;35.03;;;1.80;99.90;;;;;;5051292;28;20935;-69
2021/12/25 09:39:23;;;;;;;33.23;30.03;;;1.80;99.90;;;;;;5055133;28;20840;-70
2021/12/25 09:41:50;;;;;;;39.03;35.13;;;1.90;99.90;;;;;;5054616;28;20530;-69
2021/12/25 09:44:18;;;;;;;39.03;35.30;;;1.90;99.90;;;;;;5055613;28;20478;-69
2021/12/25 09:46:45;;;;;;;37.33;33.97;;;2.00;99.90;;;;;;5053179;28;20467;-70
2021/12/25 09:49:12;;;;;;;39.47;35.50;;;2.10;99.90;;;;;;5056944;28;20482;-69
2021/12/25 09:51:39;;;;;;;37.80;34.17;;;2.00;99.90;;;;;;5056616;28;20562;-69
2021/12/25 09:54:08;;;;;;;37.00;33.73;;;2.00;99.90;;;;;;5062837;28;20487;-68
2021/12/25 09:56:39;;;;;;;36.90;33.20;;;2.20;99.90;;;;;;5058059;28;20475;-69
2021/12/25 09:59:07;;;;;;;36.07;33.00;;;2.20;99.90;;;;;;5053445;28;20466;-68
2021/12/25 10:01:37;;;;;;;37.23;33.67;;;2.10;99.90;;;;;;5055530;28;20494;-69
2021/12/25 10:04:04;;;;;;;39.87;36.17;;;2.10;99.90;;;;;;5055782;28;20850;-68
2021/12/25 10:06:33;;;;;;;39.77;35.87;;;2.20;99.90;;;;;;5056481;28;20467;-68
2021/12/25 10:09:12;;;;;;;34.00;31.17;;;2.10;99.90;;;;;;5056579;28;20467;-69
2021/12/25 10:11:58;;;;;;;38.20;34.73;;;2.10;99.90;;;;;;5057652;28;20517;-70
2021/12/25 10:14:25;;;;;;;39.10;35.30;;;1.90;99.90;;;;;;5057006;28;20451;-69
2021/12/25 10:16:52;;;;;;;36.43;33.17;;;1.90;99.90;;;;;;5057076;28;20547;-69
2021/12/25 10:19:21;;;;;;;38.00;33.90;;;1.90;99.90;;;;;;5054441;28;20470;-69
2021/12/25 10:21:49;;;;;;;34.77;31.57;;;1.90;99.90;;;;;;5054633;28;20465;-69
2021/12/25 10:24:25;;;;;;;34.47;31.23;;;1.90;99.90;;;;;;5056016;28;20492;-69
2021/12/25 10:26:54;;;;;;;37.97;34.40;;;1.80;99.90;;;;;;5061791;28;20478;-68
2021/12/25 10:29:23;;;;;;;33.93;30.93;;;1.80;99.90;;;;;;5052883;28;20471;-69
2021/12/25 10:31:51;;;;;;;36.33;32.93;;;1.70;99.90;;;;;;5062196;28;21015;-69
2021/12/25 10:34:20;;;;;;;38.03;34.00;;;1.80;99.90;;;;;;5053924;28;20859;-69
2021/12/25 10:36:48;;;;;;;34.13;31.03;;;1.80;99.90;;;;;;5057039;28;20462;-69
2021/12/25 10:39:17;;;;;;;36.30;32.57;;;1.90;99.90;;;;;;5054431;28;20467;-69
2021/12/25 10:41:56;;;;;;;38.07;34.33;;;1.90;99.90;;;;;;5055882;28;20484;-69
2021/12/25 10:44:24;;;;;;;35.30;32.00;;;2.10;99.90;;;;;;5056797;28;20891;-70
2021/12/25 10:46:54;;;;;;;37.97;34.30;;;2.00;99.90;;;;;;5055587;28;20473;-69
2021/12/25 10:49:23;;;;;;;33.23;29.87;;;2.10;99.90;;;;;;5055095;28;21068;-69
2021/12/25 10:51:50;;;;;;;36.90;33.43;;;2.20;99.90;;;;;;5054323;28;20946;-69
2021/12/25 10:54:18;;;;;;;34.97;31.47;;;2.20;99.90;;;;;;5054026;28;20493;-69
2021/12/25 10:56:48;;;;;;;37.47;33.60;;;2.30;99.90;;;;;;5059594;28;20471;-69
2021/12/25 10:59:18;;;;;;;37.00;33.60;;;2.40;99.90;;;;;;5054151;28;20453;-69
2021/12/25 11:01:47;;;;;;;33.53;30.70;;;2.60;99.90;;;;;;5057741;28;20465;-68
2021/12/25 11:04:29;;;;;;;34.27;31.37;;;2.50;99.90;;;;;;5052658;28;20463;-68
2021/12/25 11:06:57;;;;;;;35.90;32.30;;;2.50;99.90;;;;;;5056198;28;20465;-69
2021/12/25 11:09:24;;;;;;;31.13;28.43;;;2.50;99.90;;;;;;5048843;28;20958;-69
2021/12/25 11:12:17;;;;;;;32.27;29.47;;;2.40;99.90;;;;;;5050411;28;20463;-69
2021/12/25 11:14:46;;;;;;;32.73;29.83;;;2.30;99.90;;;;;;5049820;28;20463;-69
2021/12/25 11:17:24;;;;;;;33.03;29.90;;;2.20;99.90;;;;;;5056092;28;20799;-69
2021/12/25 11:19:58;;;;;;;33.23;30.23;;;2.10;99.90;;;;;;5050121;28;20526;-68
2021/12/25 11:22:27;;;;;;;31.40;28.50;;;2.10;99.90;;;;;;5049524;28;20564;-69
2021/12/25 11:24:57;;;;;;;28.80;26.40;;;2.10;99.90;;;;;;5053983;28;20487;-68
2021/12/25 11:27:25;;;;;;;30.07;27.53;;;1.90;99.90;;;;;;5058723;28;20494;-69
2021/12/25 11:29:54;;;;;;;26.63;24.43;;;2.00;99.90;;;;;;5058090;28;20459;-68
2021/12/25 11:32:21;;;;;;;29.90;27.20;;;2.00;99.90;;;;;;5056676;28;20470;-69
2021/12/25 11:34:50;;;;;;;24.20;22.40;;;2.00;99.90;;;;;;5052752;28;20548;-69
2021/12/25 11:37:18;;;;;;;27.80;25.30;;;2.10;99.90;;;;;;5059722;28;20470;-68
2021/12/25 11:39:51;;;;;;;25.97;23.90;;;2.00;99.90;;;;;;5051392;28;20466;-68
2021/12/25 11:42:19;;;;;;;24.67;22.63;;;2.00;99.90;;;;;;5057305;28;20474;-68
2021/12/25 11:44:51;;;;;;;25.20;23.30;;;2.10;99.90;;;;;;5063704;28;20503;-69
2021/12/25 11:47:33;;;;;;;28.23;25.73;;;2.20;99.90;;;;;;5053610;28;20799;-68
2021/12/25 11:50:04;;;;;;;33.70;28.73;;;2.30;99.90;;;;;;5053340;28;20558;-69
2021/12/25 11:52:36;;;;;;;25.57;23.10;;;2.20;99.90;;;;;;5049174;28;20471;-69
2021/12/25 11:55:46;;;;;;;25.97;23.57;;;2.30;99.90;;;;;;5050577;28;20968;-69
2021/12/25 11:58:39;;;;;;;25.73;23.33;;;2.20;99.90;;;;;;5056898;28;20557;-68
2021/12/25 12:01:19;;;;;;;23.50;21.60;;;2.20;99.90;;;;;;5050950;28;20478;-68
2021/12/25 12:03:54;;;;;;;27.70;24.90;;;2.00;99.90;;;;;;5053969;28;20536;-69
2021/12/25 12:06:41;;;;;;;38.27;27.80;;;2.00;99.90;;;;;;5048224;28;20463;-69
2021/12/25 12:09:10;;;;;;;32.30;28.80;;;2.00;99.90;;;;;;5056025;28;20462;-68
2021/12/25 12:11:40;;;;;;;24.00;21.87;;;2.20;99.90;;;;;;5049769;28;20478;-68
2021/12/25 12:14:16;;;;;;;29.80;26.70;;;2.10;99.90;;;;;;5053882;28;20507;-68
2021/12/25 12:16:45;;;;;;;28.47;25.77;;;1.80;99.90;;;;;;5054747;28;20552;-68
2021/12/25 12:19:50;;;;;;;25.43;22.97;;;1.80;99.90;;;;;;5052712;28;20471;-68
2021/12/25 12:23:16;;;;;;;26.43;23.97;;;1.90;99.90;;;;;;5051448;28;20899;-68
2021/12/25 12:25:59;;;;;;;23.77;21.87;;;1.70;99.90;;;;;;5060630;28;20465;-69
2021/12/25 12:28:48;;;;;;;25.07;22.87;;;1.60;99.90;;;;;;5058131;28;21463;-68
2021/12/25 12:31:35;;;;;;;23.53;21.20;;;1.60;99.90;;;;;;5062926;28;20989;-68
2021/12/25 12:34:02;;;;;;;21.13;19.53;;;1.60;99.90;;;;;;5054556;28;20486;-69
2021/12/25 12:36:31;;;;;;;22.10;20.03;;;1.60;99.90;;;;;;5049629;28;20854;-68
2021/12/25 12:39:15;;;;;;;24.13;22.20;;;1.50;99.90;;;;;;5046855;28;20455;-68
2021/12/25 12:41:52;;;;;;;20.23;18.83;;;1.50;99.90;;;;;;5049925;28;20549;-69
2021/12/25 12:44:28;;;;;;;20.77;19.20;;;1.50;99.90;;;;;;5048436;28;21071;-68
2021/12/25 12:47:01;;;;;;;22.93;21.17;;;1.40;99.90;;;;;;5055904;28;20462;-68
2021/12/25 12:49:34;;;;;;;21.67;19.80;;;1.50;99.90;;;;;;5057140;28;20472;-68
2021/12/25 12:52:25;;;;;;;20.67;19.20;;;1.50;99.90;;;;;;5049974;28;20498;-68
2021/12/25 12:54:54;;;;;;;22.17;20.50;;;1.50;99.90;;;;;;5050483;28;20907;-68
2021/12/25 12:57:25;;;;;;;21.77;20.07;;;1.50;99.90;;;;;;5054078;28;20834;-68
2021/12/25 12:59:54;;;;;;;22.40;20.50;;;1.50;99.90;;;;;;5052358;28;20459;-69
2021/12/25 13:02:23;;;;;;;19.53;18.03;;;1.40;99.90;;;;;;5059761;28;20478;-68
2021/12/25 13:04:55;;;;;;;22.07;20.17;;;1.40;99.90;;;;;;5050442;28;20466;-68
2021/12/25 13:07:25;;;;;;;20.93;19.23;;;1.40;99.90;;;;;;5057893;28;20459;-70
2021/12/25 13:10:10;;;;;;;20.83;19.13;;;1.40;99.90;;;;;;5047856;28;20471;-70
2021/12/25 13:12:43;;;;;;;20.60;19.00;;;1.40;99.90;;;;;;5053598;28;20538;-71
2021/12/25 13:15:15;;;;;;;20.87;19.17;;;1.50;99.90;;;;;;5056913;28;20460;-70
2021/12/25 13:17:54;;;;;;;19.60;18.20;;;1.50;99.90;;;;;;5051572;28;20463;-70
2021/12/25 13:20:39;;;;;;;19.57;18.17;;;1.50;99.90;;;;;;5053480;28;20473;-70
2021/12/25 13:23:08;;;;;;;20.37;18.97;;;1.50;99.90;;;;;;5039477;28;20499;-71
2021/12/25 13:25:36;;;;;;;20.00;18.57;;;1.50;99.90;;;;;;5055616;28;20802;-70
2021/12/25 13:28:05;;;;;;;18.70;17.37;;;1.50;99.90;;;;;;5043828;28;20470;-71
2021/12/25 13:30:32;;;;;;;18.83;17.33;;;1.50;99.90;;;;;;5050300;28;20466;-71
2021/12/25 13:33:10;;;;;;;18.40;17.03;;;1.50;99.90;;;;;;5045920;28;20458;-70
2021/12/25 13:35:38;;;;;;;18.97;17.53;;;1.50;99.90;;;;;;5048617;28;20460;-70
2021/12/25 13:38:07;;;;;;;19.70;18.20;;;1.60;99.90;;;;;;5047374;28;20459;-68
2021/12/25 13:40:36;;;;;;;16.50;15.50;;;1.60;99.90;;;;;;5042461;28;20471;-68
2021/12/25 13:43:08;;;;;;;19.50;17.93;;;1.50;99.90;;;;;;5044966;28;20469;-68
2021/12/25 13:45:35;;;;;;;19.73;18.17;;;1.60;99.90;;;;;;5048826;28;20523;-70
2021/12/25 13:48:04;;;;;;;19.13;17.60;;;1.60;99.90;;;;;;5047181;28;20825;-68
2021/12/25 13:50:31;;;;;;;18.87;17.57;;;1.70;99.90;;;;;;5047135;28;20473;-71
2021/12/25 13:52:59;;;;;;;20.70;19.00;;;1.70;99.90;;;;;;5052510;28;20469;-68